Time;durP1;ratioP1;P1;durP2;ratioP2;P2;SDS_P1;SDS_P2;PMS_P1;PMS_P2;Temp;Humidity;BMP_temperature;BMP_pressure;BME280_temperature;BME280_humidity;BME280_pressure;Samples;Min_cycle;Max_cycle;Signal;HPM_P1;HPM_P2
2023/04/11 00:00:06;;;;;;;10.38;4.75;;;9.60;99.90;;;;;;6315830;22;20005;-72
2023/04/11 00:02:39;;;;;;;14.68;3.70;;;9.60;99.90;;;;;;6279023;22;20040;-73
2023/04/11 00:05:06;;;;;;;9.98;3.33;;;9.60;99.90;;;;;;6315915;22;20005;-71
2023/04/11 00:07:32;;;;;;;13.65;3.85;;;9.60;99.90;;;;;;6288233;22;20071;-74
2023/04/11 00:09:58;;;;;;;13.40;3.85;;;9.70;99.90;;;;;;6277978;22;20007;-74
2023/04/11 00:12:24;;;;;;;20.08;4.45;;;9.70;99.90;;;;;;6277884;22;19999;-73
2023/04/11 00:14:52;;;;;;;19.10;7.10;;;9.70;99.90;;;;;;6316088;22;20030;-73
2023/04/11 00:17:20;;;;;;;16.20;4.20;;;9.80;99.90;;;;;;6315069;22;20011;-73
2023/04/11 00:19:47;;;;;;;8.60;3.03;;;9.80;99.90;;;;;;6288646;22;20494;-73
2023/04/11 00:22:16;;;;;;;17.30;4.18;;;9.90;99.90;;;;;;6278508;22;19995;-72
2023/04/11 00:24:45;;;;;;;21.00;5.10;;;9.90;99.90;;;;;;6278538;22;20010;-73
2023/04/11 00:27:10;;;;;;;8.73;5.20;;;9.80;99.90;;;;;;6278100;22;19995;-73
2023/04/11 00:29:36;;;;;;;12.07;5.00;;;9.80;99.90;;;;;;6277718;22;20011;-73
2023/04/11 00:32:02;;;;;;;13.70;4.97;;;9.80;99.90;;;;;;6277950;22;20007;-73
2023/04/11 00:34:29;;;;;;;19.77;3.95;;;9.80;99.90;;;;;;6315887;22;19999;-73
2023/04/11 00:36:55;;;;;;;18.13;4.03;;;9.80;99.90;;;;;;6288189;22;20086;-73
2023/04/11 00:39:21;;;;;;;16.13;5.28;;;9.70;99.90;;;;;;6277994;22;20038;-73
2023/04/11 00:41:47;;;;;;;11.20;5.07;;;9.70;99.90;;;;;;6315765;22;20048;-74
2023/04/11 00:44:14;;;;;;;8.13;4.55;;;9.70;99.90;;;;;;6316350;22;20083;-73
2023/04/11 00:46:44;;;;;;;22.40;6.00;;;9.60;99.90;;;;;;6315419;22;19993;-74
2023/04/11 00:49:11;;;;;;;11.55;4.75;;;9.60;99.90;;;;;;6278432;22;20006;-73
2023/04/11 00:51:37;;;;;;;15.30;4.30;;;9.60;99.90;;;;;;6303090;22;20007;-73
2023/04/11 00:54:03;;;;;;;10.10;3.65;;;9.60;99.90;;;;;;6278280;22;20002;-73
2023/04/11 00:56:30;;;;;;;15.15;4.80;;;9.70;99.90;;;;;;6277528;22;20011;-73
2023/04/11 00:58:56;;;;;;;14.02;5.97;;;9.70;99.90;;;;;;6278448;22;20423;-73
2023/04/11 01:01:22;;;;;;;14.63;3.85;;;9.70;99.90;;;;;;6277926;22;20038;-73
2023/04/11 01:03:49;;;;;;;14.25;6.22;;;9.70;99.90;;;;;;6278206;22;20014;-73
2023/04/11 01:06:17;;;;;;;12.88;4.57;;;9.70;99.90;;;;;;6277530;22;20000;-73
2023/04/11 01:08:45;;;;;;;26.80;5.18;;;9.70;99.90;;;;;;6277835;22;19995;-72
2023/04/11 01:11:11;;;;;;;18.63;5.85;;;9.60;99.90;;;;;;6277962;22;20003;-73
2023/04/11 01:13:41;;;;;;;9.05;5.93;;;9.50;99.90;;;;;;6315969;22;19996;-73
2023/04/11 01:16:08;;;;;;;15.55;5.43;;;9.50;99.90;;;;;;6316760;22;20078;-73
2023/04/11 01:18:35;;;;;;;14.52;5.55;;;9.50;99.90;;;;;;6317567;22;20010;-73
2023/04/11 01:21:01;;;;;;;10.95;3.72;;;9.40;99.90;;;;;;6253854;22;20035;-73
2023/04/11 01:23:27;;;;;;;13.98;6.00;;;9.30;99.90;;;;;;6254692;22;20445;-73
2023/04/11 01:25:54;;;;;;;15.02;5.43;;;9.30;99.90;;;;;;6317286;22;19991;-74
2023/04/11 01:28:20;;;;;;;17.67;5.22;;;9.30;99.90;;;;;;6280095;22;20394;-74
2023/04/11 01:30:47;;;;;;;10.02;5.60;;;9.30;99.90;;;;;;6254318;22;20419;-73
2023/04/11 01:33:14;;;;;;;16.60;4.65;;;9.30;99.90;;;;;;6279697;22;20353;-72
2023/04/11 01:35:41;;;;;;;16.80;4.57;;;9.40;99.90;;;;;;6278913;22;19991;-73
2023/04/11 01:38:07;;;;;;;23.13;4.75;;;9.40;99.90;;;;;;6316099;22;20018;-73
2023/04/11 01:40:33;;;;;;;20.73;5.45;;;9.40;99.90;;;;;;6279496;22;20445;-73
2023/04/11 01:43:02;;;;;;;15.30;4.63;;;9.40;99.90;;;;;;6279922;22;20091;-73
2023/04/11 01:45:29;;;;;;;20.42;4.05;;;9.50;99.90;;;;;;6253211;22;20137;-73
2023/04/11 01:47:56;;;;;;;11.82;3.47;;;9.50;99.90;;;;;;6317105;22;20006;-73
2023/04/11 01:50:22;;;;;;;10.70;3.20;;;9.40;99.90;;;;;;6288167;22;20370;-73
2023/04/11 01:52:50;;;;;;;19.92;5.18;;;9.50;99.90;;;;;;6317488;22;20005;-73
2023/04/11 01:55:16;;;;;;;10.77;4.30;;;9.50;99.90;;;;;;6279797;22;19991;-73
2023/04/11 01:57:42;;;;;;;9.77;5.18;;;9.60;99.90;;;;;;6316681;22;20018;-73
2023/04/11 02:00:12;;;;;;;14.32;6.38;;;9.50;99.90;;;;;;6279726;22;19998;-72
2023/04/11 02:02:41;;;;;;;15.30;6.03;;;9.50;99.90;;;;;;6279547;22;20076;-73
2023/04/11 02:05:08;;;;;;;16.65;5.28;;;9.30;99.90;;;;;;6279478;22;20318;-73
2023/04/11 02:07:36;;;;;;;22.23;5.07;;;9.30;99.90;;;;;;6279465;22;19999;-73
2023/04/11 02:10:02;;;;;;;11.85;4.30;;;9.20;99.90;;;;;;6315215;22;19999;-73
2023/04/11 02:12:28;;;;;;;16.05;4.65;;;9.10;99.90;;;;;;6317117;22;20006;-73
2023/04/11 02:14:54;;;;;;;17.30;6.32;;;9.10;99.90;;;;;;6253950;22;20003;-73
2023/04/11 02:17:24;;;;;;;21.05;5.32;;;9.10;99.90;;;;;;6278958;22;20512;-73
2023/04/11 02:19:50;;;;;;;31.55;7.32;;;9.00;99.90;;;;;;6289528;22;20000;-73
2023/04/11 02:22:16;;;;;;;13.00;5.47;;;9.00;99.90;;;;;;6279545;22;20006;-73
2023/04/11 02:24:42;;;;;;;16.17;6.95;;;9.00;99.90;;;;;;6278947;22;20327;-73
2023/04/11 02:27:09;;;;;;;30.38;8.27;;;9.00;99.90;;;;;;6278764;22;19999;-73
2023/04/11 02:29:35;;;;;;;20.52;6.63;;;8.90;99.90;;;;;;6317008;22;19999;-73
2023/04/11 02:32:01;;;;;;;12.55;4.88;;;8.90;99.90;;;;;;6279192;22;20003;-72
2023/04/11 02:34:27;;;;;;;21.85;7.47;;;9.00;99.90;;;;;;6317297;22;20005;-72
2023/04/11 02:36:54;;;;;;;13.30;3.90;;;8.90;99.90;;;;;;6278139;22;20069;-73
2023/04/11 02:39:23;;;;;;;13.68;5.72;;;8.90;99.90;;;;;;6289899;22;20007;-73
2023/04/11 02:41:50;;;;;;;21.00;6.90;;;8.90;99.90;;;;;;6253333;22;19996;-73
2023/04/11 02:44:17;;;;;;;17.45;5.32;;;8.90;99.90;;;;;;6316530;22;19995;-73
2023/04/11 02:46:44;;;;;;;10.88;3.97;;;9.00;99.90;;;;;;6278753;22;20044;-73
2023/04/11 02:49:10;;;;;;;10.52;4.15;;;9.00;99.90;;;;;;6279301;22;20377;-72
2023/04/11 02:51:37;;;;;;;19.92;5.93;;;9.00;99.90;;;;;;6278708;22;20441;-73
2023/04/11 02:54:04;;;;;;;10.23;5.10;;;9.10;99.90;;;;;;6304973;22;20137;-73
2023/04/11 02:56:30;;;;;;;14.40;4.80;;;9.10;99.90;;;;;;6278145;22;20028;-72
2023/04/11 02:58:57;;;;;;;12.18;5.25;;;9.10;99.90;;;;;;6228703;22;20004;-72
2023/04/11 03:01:25;;;;;;;12.55;5.93;;;9.10;99.90;;;;;;6253908;22;19999;-72
2023/04/11 03:03:52;;;;;;;9.82;4.55;;;9.10;99.90;;;;;;6289772;22;20026;-72
2023/04/11 03:06:20;;;;;;;14.43;3.75;;;9.10;99.90;;;;;;6278859;22;19995;-72
2023/04/11 03:08:49;;;;;;;16.65;5.03;;;9.10;99.90;;;;;;6278607;22;20033;-72
2023/04/11 03:11:15;;;;;;;7.65;4.25;;;9.10;99.90;;;;;;6278643;22;19999;-72
2023/04/11 03:13:42;;;;;;;19.08;5.25;;;9.10;99.90;;;;;;6278961;22;20003;-72
2023/04/11 03:16:08;;;;;;;21.48;5.40;;;9.10;99.90;;;;;;6278207;22;20035;-72
2023/04/11 03:18:34;;;;;;;8.43;4.22;;;9.10;99.90;;;;;;6315302;22;20311;-72
2023/04/11 03:21:06;;;;;;;20.85;5.30;;;9.10;99.90;;;;;;6278400;22;20308;-72
2023/04/11 03:23:33;;;;;;;15.90;3.80;;;9.10;99.90;;;;;;6253758;22;20011;-73
2023/04/11 03:25:59;;;;;;;20.15;4.55;;;9.20;99.90;;;;;;6278197;22;20057;-73
2023/04/11 03:28:26;;;;;;;10.63;3.53;;;9.10;99.90;;;;;;6278875;22;20314;-72
2023/04/11 03:30:53;;;;;;;10.52;3.72;;;9.10;99.90;;;;;;6278519;22;20011;-73
2023/04/11 03:33:21;;;;;;;19.92;8.32;;;9.10;99.90;;;;;;6279135;22;19999;-72
2023/04/11 03:35:48;;;;;;;17.08;5.30;;;9.10;99.90;;;;;;6277802;22;20023;-72
2023/04/11 03:38:13;;;;;;;13.35;3.60;;;9.10;99.90;;;;;;6278842;22;19999;-72
2023/04/11 03:40:40;;;;;;;10.10;4.82;;;9.10;99.90;;;;;;6278638;22;19999;-72
2023/04/11 03:43:13;;;;;;;10.43;3.42;;;9.10;99.90;;;;;;6278641;22;20006;-72
2023/04/11 03:45:39;;;;;;;18.92;4.90;;;9.10;99.90;;;;;;6278400;22;20322;-73
2023/04/11 03:48:12;;;;;;;15.82;4.57;;;9.10;99.90;;;;;;6278634;22;20049;-73
2023/04/11 03:50:51;;;;;;;10.65;4.30;;;9.10;99.90;;;;;;6303862;22;20070;-72
2023/04/11 03:53:22;;;;;;;14.55;4.68;;;8.90;99.90;;;;;;6304401;22;20018;-71
2023/04/11 03:55:53;;;;;;;14.80;4.95;;;8.90;99.90;;;;;;6303122;22;20341;-73
2023/04/11 03:58:22;;;;;;;8.32;4.07;;;8.90;99.90;;;;;;6278627;22;20030;-72
2023/04/11 04:00:48;;;;;;;10.75;5.05;;;8.90;99.90;;;;;;6278571;22;20365;-74
2023/04/11 04:03:14;;;;;;;11.40;4.15;;;8.80;99.90;;;;;;6304572;22;19995;-74
2023/04/11 04:05:41;;;;;;;14.85;7.95;;;8.70;99.90;;;;;;6277771;22;20035;-74
2023/04/11 04:08:09;;;;;;;14.55;4.97;;;8.60;99.90;;;;;;6304458;22;19996;-73
2023/04/11 04:10:45;;;;;;;17.70;5.00;;;8.60;99.90;;;;;;6315981;22;19998;-73
2023/04/11 04:13:12;;;;;;;16.27;6.28;;;8.50;99.90;;;;;;6278345;22;20014;-72
2023/04/11 04:15:43;;;;;;;;;;;8.50;99.90;;;;;;6278659;22;20340;-73
2023/04/11 04:18:11;;;;;;;8.02;5.00;;;8.40;99.90;;;;;;6278044;22;19986;-73
2023/04/11 04:20:46;;;;;;;8.40;4.00;;;8.40;99.90;;;;;;6277992;22;20472;-72
2023/04/11 04:23:12;;;;;;;14.68;5.25;;;8.40;99.90;;;;;;6304099;22;20011;-73
2023/04/11 04:26:05;;;;;;;8.77;4.47;;;8.30;99.90;;;;;;6260498;22;20690;-73
2023/04/11 04:28:32;;;;;;;15.73;6.07;;;8.20;99.90;;;;;;6277657;22;20486;-73
2023/04/11 04:31:02;;;;;;;6.40;5.05;;;8.10;99.90;;;;;;6278177;22;19999;-72
2023/04/11 04:33:35;;;;;;;15.65;4.93;;;8.20;99.90;;;;;;6277484;22;20438;-73
2023/04/11 04:36:08;;;;;;;21.80;7.00;;;8.20;99.90;;;;;;6277989;22;20057;-72
2023/04/11 04:38:37;;;;;;;12.87;4.57;;;8.20;99.90;;;;;;6277959;22;19999;-73
2023/04/11 04:41:13;;;;;;;15.50;6.25;;;8.30;99.90;;;;;;6277339;22;19995;-72
2023/04/11 04:43:43;;;;;;;14.65;3.28;;;8.20;99.90;;;;;;6277616;22;19999;-73
2023/04/11 04:46:17;;;;;;;14.00;4.47;;;8.20;99.90;;;;;;6277199;22;20003;-73
2023/04/11 04:48:49;;;;;;;10.85;3.25;;;8.20;99.90;;;;;;6254327;22;20011;-73
2023/04/11 04:51:15;;;;;;;9.75;3.45;;;8.10;99.90;;;;;;6279200;22;20326;-73
2023/04/11 04:53:41;;;;;;;13.43;4.20;;;8.00;99.90;;;;;;6279847;22;20080;-73
2023/04/11 04:56:10;;;;;;;25.52;5.85;;;8.00;99.90;;;;;;6279221;22;20051;-73
2023/04/11 04:58:39;;;;;;;;;;;7.90;99.90;;;;;;6279910;22;20007;-72
2023/04/11 05:01:07;;;;;;;20.17;4.47;;;7.90;99.90;;;;;;6253030;22;19903;-73
2023/04/11 05:03:34;;;;;;;18.80;4.93;;;7.80;99.90;;;;;;6278197;22;20365;-73
2023/04/11 05:06:03;;;;;;;10.02;4.45;;;7.80;99.90;;;;;;6228582;22;20008;-73
2023/04/11 05:08:30;;;;;;;12.45;3.92;;;7.80;99.90;;;;;;6253430;22;20332;-72
2023/04/11 05:10:59;;;;;;;11.30;3.63;;;7.80;99.90;;;;;;6279445;22;20079;-73
2023/04/11 05:13:26;;;;;;;13.32;3.28;;;7.80;99.90;;;;;;6279109;22;20004;-73
2023/04/11 05:15:53;;;;;;;14.05;6.50;;;7.80;99.90;;;;;;6278142;22;20003;-73
2023/04/11 05:18:20;;;;;;;14.05;4.20;;;8.00;99.90;;;;;;6277956;22;20024;-73
2023/04/11 05:20:46;;;;;;;13.38;7.10;;;8.20;99.90;;;;;;6314074;22;20086;-73
2023/04/11 05:23:18;;;;;;;10.68;3.95;;;8.40;99.90;;;;;;6254999;22;20086;-73
2023/04/11 05:25:45;;;;;;;18.85;6.97;;;8.50;99.90;;;;;;6303288;22;20061;-74
2023/04/11 05:28:14;;;;;;;6.47;4.07;;;8.80;99.90;;;;;;6254048;22;19991;-74
2023/04/11 05:30:40;;;;;;;8.68;4.13;;;9.20;99.90;;;;;;6279562;22;20026;-74
2023/04/11 05:33:06;;;;;;;19.73;4.75;;;9.70;99.90;;;;;;6279899;22;19995;-74
2023/04/11 05:35:32;;;;;;;10.80;4.03;;;10.30;99.90;;;;;;6277960;22;20007;-73
